createdAt,value
2022-10-14T00:04:05.434Z,11.90
2022-10-14T00:09:26.249Z,9.27
2022-10-14T00:14:48.383Z,10.23
2022-10-14T00:20:09.519Z,11.00
2022-10-14T00:25:30.495Z,10.55
2022-10-14T00:31:01.567Z,9.93
2022-10-14T00:36:24.504Z,10.38
2022-10-14T00:41:45.548Z,10.65
2022-10-14T00:47:06.335Z,10.27
2022-10-14T00:52:27.659Z,10.10
2022-10-14T00:57:48.608Z,10.25
2022-10-14T01:03:17.342Z,9.25
2022-10-14T01:08:47.105Z,9.02
2022-10-14T01:14:28.087Z,10.00
2022-10-14T01:20:38.385Z,10.20
2022-10-14T01:26:10.960Z,9.27
2022-10-14T01:31:35.646Z,9.23
2022-10-14T01:37:09.308Z,7.95
2022-10-14T01:42:38.355Z,9.35
2022-10-14T01:48:00.802Z,9.27
2022-10-14T01:53:49.002Z,8.93
2022-10-14T01:59:13.565Z,9.07
2022-10-14T02:04:34.346Z,9.27
2022-10-14T02:10:01.076Z,9.55
2022-10-14T02:15:56.217Z,8.82
2022-10-14T02:21:24.731Z,8.98
2022-10-14T02:26:47.514Z,9.07
2022-10-14T02:32:11.173Z,9.13
2022-10-14T02:37:33.726Z,8.55
2022-10-14T02:42:54.246Z,8.77
2022-10-14T02:48:15.264Z,9.55
2022-10-14T02:53:35.887Z,8.15
2022-10-14T02:58:56.541Z,9.65
2022-10-14T03:04:17.039Z,11.25
2022-10-14T03:09:37.696Z,10.52
2022-10-14T03:15:00.495Z,10.27
2022-10-14T03:20:21.140Z,10.07
2022-10-14T03:25:46.791Z,9.68
2022-10-14T03:31:21.132Z,10.75
2022-10-14T03:37:05.084Z,10.80
2022-10-14T03:42:28.157Z,11.95
2022-10-14T03:47:49.367Z,11.50
2022-10-14T03:53:09.948Z,12.27
2022-10-14T03:58:31.102Z,12.00
2022-10-14T04:03:58.257Z,11.23
2022-10-14T04:09:21.565Z,11.50
2022-10-14T04:14:42.964Z,11.02
2022-10-14T04:20:05.755Z,11.13
2022-10-14T04:25:27.321Z,14.52
2022-10-14T04:30:56.087Z,16.30
2022-10-14T04:36:21.852Z,14.98
2022-10-14T04:41:43.466Z,14.43
2022-10-14T04:47:09.133Z,14.30
2022-10-14T04:52:31.703Z,10.52
2022-10-14T04:58:01.737Z,11.25
2022-10-14T05:03:29.995Z,12.30
2022-10-14T05:08:52.598Z,10.85
2022-10-14T05:14:14.070Z,10.50
2022-10-14T05:19:37.203Z,11.38
2022-10-14T05:24:57.877Z,6.45
2022-10-14T05:30:18.894Z,11.35
2022-10-14T05:35:58.703Z,10.15
2022-10-14T05:41:22.221Z,10.75
2022-10-14T05:46:43.205Z,11.20
2022-10-14T05:52:04.780Z,10.68
2022-10-14T05:57:28.392Z,11.43
2022-10-14T06:02:49.173Z,10.25
2022-10-14T06:08:12.008Z,11.05
2022-10-14T06:13:32.959Z,11.75
2022-10-14T06:18:54.665Z,12.95
2022-10-14T06:24:16.410Z,10.90
2022-10-14T06:29:40.140Z,10.00
2022-10-14T06:35:01.138Z,9.23
2022-10-14T06:40:21.842Z,10.27
2022-10-14T06:45:42.496Z,9.27
2022-10-14T06:51:03.702Z,9.40
2022-10-14T06:56:24.430Z,9.63
2022-10-14T07:01:45.126Z,9.20
2022-10-14T07:07:07.190Z,8.40
2022-10-14T07:12:28.190Z,9.48
2022-10-14T07:17:48.831Z,9.45
2022-10-14T07:23:09.790Z,8.60
2022-10-14T07:28:30.529Z,8.23
2022-10-14T07:33:51.457Z,7.45
2022-10-14T07:39:12.340Z,9.30
2022-10-14T07:44:33.500Z,8.43
2022-10-14T07:49:54.429Z,7.50
2022-10-14T07:55:15.088Z,8.63
2022-10-14T08:00:37.494Z,7.82
2022-10-14T08:06:03.259Z,8.63
2022-10-14T08:11:26.943Z,7.93
2022-10-14T08:16:48.221Z,8.15
2022-10-14T08:22:09.755Z,8.30
2022-10-14T08:27:30.788Z,9.10
2022-10-14T08:32:51.418Z,8.63
2022-10-14T08:38:12.206Z,7.85
2022-10-14T08:44:13.345Z,7.05
2022-10-14T08:55:05.345Z,8.43
2022-10-14T09:00:29.987Z,6.78
2022-10-14T09:05:58.727Z,6.35
2022-10-14T09:11:22.225Z,6.57
2022-10-14T09:16:50.376Z,6.05
2022-10-14T09:22:15.666Z,7.53
2022-10-14T09:27:38.006Z,7.38
2022-10-14T09:32:59.975Z,6.90
2022-10-14T09:38:21.564Z,6.53
2022-10-14T09:44:22.501Z,7.60
2022-10-14T09:49:47.078Z,8.68
2022-10-14T09:55:18.916Z,7.55
2022-10-14T10:00:40.631Z,7.30
2022-10-14T10:06:09.379Z,5.63
2022-10-14T10:11:38.288Z,4.95
2022-10-14T10:17:08.419Z,6.70
2022-10-14T10:22:34.157Z,6.28
2022-10-14T10:27:58.431Z,6.80
2022-10-14T10:33:26.472Z,7.25
2022-10-14T10:39:06.002Z,7.53
2022-10-14T10:44:58.868Z,7.03
2022-10-14T10:50:37.040Z,5.38
2022-10-14T10:56:04.432Z,5.78
2022-10-14T11:02:03.839Z,6.57
2022-10-14T11:07:43.101Z,5.72
2022-10-14T11:13:35.371Z,5.85
2022-10-14T11:19:14.677Z,6.63
2022-10-14T11:24:58.693Z,5.33
2022-10-14T11:30:32.607Z,5.72
2022-10-14T11:36:31.551Z,6.38
2022-10-14T11:42:01.554Z,4.77
2022-10-14T11:47:34.772Z,5.13
2022-10-14T11:53:09.956Z,5.13
2022-10-14T11:58:35.190Z,5.18
2022-10-14T12:04:10.895Z,5.15
2022-10-14T12:09:39.139Z,5.43
2022-10-14T12:15:17.626Z,5.60
2022-10-14T12:20:51.750Z,5.05
2022-10-14T12:26:15.791Z,5.20
2022-10-14T12:31:39.151Z,5.03
2022-10-14T12:37:00.562Z,5.30
2022-10-14T12:42:22.352Z,4.50
2022-10-14T12:47:44.150Z,4.32
2022-10-14T12:53:15.944Z,5.10
2022-10-14T12:59:01.275Z,3.65
2022-10-14T13:04:22.275Z,5.32
2022-10-14T13:09:44.859Z,4.38
2022-10-14T13:15:48.727Z,3.40
2022-10-14T13:21:31.176Z,4.25
2022-10-14T13:26:54.814Z,3.60
2022-10-14T13:32:31.223Z,3.60
2022-10-14T13:38:02.146Z,4.07
2022-10-14T13:43:37.323Z,3.72
2022-10-14T13:49:05.416Z,3.55
2022-10-14T13:54:28.716Z,3.50
2022-10-14T14:00:37.286Z,3.28
2022-10-14T14:05:36.241Z,3.58
2022-10-14T14:11:18.961Z,2.90
2022-10-14T14:22:21.039Z,3.08
2022-10-14T14:27:49.284Z,2.90
2022-10-14T14:33:19.655Z,2.40
2022-10-14T14:38:51.724Z,1.90
2022-10-14T14:44:25.342Z,2.80
2022-10-14T14:49:54.088Z,2.70
2022-10-14T14:55:34.696Z,3.05
2022-10-14T15:00:56.325Z,3.42
2022-10-14T15:06:18.198Z,3.50
2022-10-14T15:11:58.001Z,3.42
2022-10-14T15:22:54.296Z,4.25
2022-10-14T15:28:31.898Z,5.57
2022-10-14T15:33:53.404Z,4.38
2022-10-14T15:39:14.283Z,4.85
2022-10-14T15:44:35.009Z,4.47
2022-10-14T15:49:57.203Z,5.03
2022-10-14T15:55:23.083Z,4.70
2022-10-14T16:00:47.430Z,3.83
2022-10-14T16:06:09.099Z,3.63
2022-10-14T16:11:31.578Z,5.97
2022-10-14T16:16:52.853Z,5.20
2022-10-14T16:22:14.845Z,5.57
2022-10-14T16:27:35.962Z,5.18
2022-10-14T16:32:57.037Z,5.80
2022-10-14T16:38:17.591Z,7.00
2022-10-14T16:43:38.623Z,9.18
2022-10-14T16:48:59.629Z,8.95
2022-10-14T16:54:21.996Z,9.25
2022-10-14T16:59:42.696Z,9.52
2022-10-14T17:05:03.448Z,15.80
2022-10-14T17:10:25.248Z,15.50
2022-10-14T17:15:45.922Z,17.80
2022-10-14T17:21:09.006Z,19.63
2022-10-14T17:26:31.551Z,16.02
2022-10-14T17:31:52.423Z,9.63
2022-10-14T17:37:13.217Z,7.18
2022-10-14T17:42:34.082Z,7.22
2022-10-14T17:47:56.568Z,11.13
2022-10-14T17:53:17.547Z,9.48
2022-10-14T17:58:39.180Z,8.63
2022-10-14T18:04:01.021Z,7.18
2022-10-14T18:09:21.758Z,4.80
2022-10-14T18:14:42.531Z,4.63
2022-10-14T18:20:05.501Z,4.10
2022-10-14T18:25:26.515Z,4.10
2022-10-14T18:30:47.144Z,4.38
2022-10-14T18:36:11.113Z,4.22
2022-10-14T18:41:32.663Z,4.57
2022-10-14T18:46:55.847Z,3.97
2022-10-14T18:52:18.907Z,5.43
2022-10-14T18:57:39.574Z,4.00
2022-10-14T19:03:00.043Z,4.82
2022-10-14T19:08:22.920Z,3.55
2022-10-14T19:13:45.413Z,4.75
2022-10-14T19:19:16.573Z,6.97
2022-10-14T19:24:37.929Z,5.70
2022-10-14T19:29:58.628Z,5.00
2022-10-14T19:35:21.810Z,5.05
2022-10-14T19:40:42.556Z,3.92
2022-10-14T19:46:09.312Z,4.00
2022-10-14T19:51:31.329Z,4.03
2022-10-14T19:56:52.250Z,4.47
2022-10-14T20:02:15.106Z,5.63
2022-10-14T20:07:35.693Z,3.42
2022-10-14T20:12:56.437Z,3.85
2022-10-14T20:18:18.522Z,4.32
2022-10-14T20:23:39.703Z,4.10
2022-10-14T20:29:00.375Z,3.30
2022-10-14T20:34:21.078Z,3.40
2022-10-14T20:39:41.698Z,3.47
2022-10-14T20:45:02.617Z,3.30
2022-10-14T20:50:23.630Z,2.92
2022-10-14T20:55:44.426Z,2.92
2022-10-14T21:01:16.508Z,3.33
2022-10-14T21:06:38.922Z,2.85
2022-10-14T21:11:59.940Z,2.47
2022-10-14T21:17:20.807Z,2.53
2022-10-14T21:22:41.687Z,1.98
2022-10-14T21:28:02.293Z,2.10
2022-10-14T21:33:22.844Z,2.25
2022-10-14T21:38:43.598Z,2.30
2022-10-14T21:44:05.228Z,2.83
2022-10-14T21:49:26.572Z,3.20
2022-10-14T21:54:47.225Z,3.25
2022-10-14T22:00:09.317Z,2.38
2022-10-14T22:05:30.026Z,3.03
2022-10-14T22:10:50.568Z,2.80
2022-10-14T22:16:13.540Z,2.72
2022-10-14T22:21:36.716Z,2.80
2022-10-14T22:26:57.666Z,2.95
2022-10-14T22:32:18.272Z,2.90
2022-10-14T22:37:38.838Z,3.00
2022-10-14T22:42:59.483Z,2.92
2022-10-14T22:48:20.057Z,3.25
2022-10-14T22:53:41.852Z,3.00
2022-10-14T22:59:05.747Z,2.60
2022-10-14T23:04:26.461Z,3.10
2022-10-14T23:09:47.259Z,2.95
2022-10-14T23:15:08.413Z,3.05
2022-10-14T23:20:29.373Z,2.95
2022-10-14T23:25:50.325Z,2.95
2022-10-14T23:31:13.611Z,3.20
2022-10-14T23:36:34.659Z,2.95
2022-10-14T23:41:55.195Z,3.00
2022-10-14T23:47:15.801Z,3.20
2022-10-14T23:52:36.298Z,2.97
2022-10-14T23:57:56.841Z,3.17
